Time;durP1;ratioP1;P1;durP2;ratioP2;P2;SDS_P1;SDS_P2;PMS_P1;PMS_P2;Temp;Humidity;BMP_temperature;BMP_pressure;BME280_temperature;BME280_humidity;BME280_pressure;Samples;Min_cycle;Max_cycle;Signal;HPM_P1;HPM_P2
2023/06/02 00:02:41;;;;;;;8.75;6.60;;;;;;;12.64;100.00;100527.88;4976777;28;20066;-91
2023/06/02 00:05:34;;;;;;;8.60;7.18;;;;;;;12.49;100.00;100510.94;4959505;29;20055;-92
2023/06/02 00:08:28;;;;;;;11.70;7.43;;;;;;;12.43;100.00;100513.94;4960950;29;20098;-91
2023/06/02 00:18:44;;;;;;;;;;;;;;;12.44;100.00;100531.56;4878703;29;20072;-92
2023/06/02 00:27:59;;;;;;;10.60;7.75;;;;;;;12.39;100.00;100514.19;4913506;28;20121;-92
2023/06/02 00:48:04;;;;;;;9.85;7.63;;;;;;;11.82;100.00;100481.72;4501554;22;16826921;-92
2023/06/02 00:55:14;;;;;;;10.38;7.70;;;;;;;12.13;100.00;100527.00;5062030;28;20044;-91
2023/06/02 00:57:58;;;;;;;8.98;7.30;;;;;;;12.04;100.00;100513.34;5051164;28;20064;-89
2023/06/02 01:01:48;;;;;;;10.30;7.75;;;;;;;11.85;100.00;100493.06;5051094;28;20091;-89
2023/06/02 01:08:47;;;;;;;9.68;6.85;;;;;;;12.06;100.00;100528.25;4985131;28;20046;-91
2023/06/02 01:11:48;;;;;;;9.40;7.28;;;;;;;12.08;100.00;100537.00;4971044;28;20082;-90
2023/06/02 01:14:33;;;;;;;8.27;7.25;;;;;;;11.98;100.00;100519.81;4974995;28;20094;-92
2023/06/02 01:17:24;;;;;;;11.48;7.78;;;;;;;11.88;100.00;100516.78;5064703;28;20213;-91
2023/06/02 01:20:23;;;;;;;9.38;7.05;;;;;;;11.92;100.00;100521.00;5000011;28;20040;-91
2023/06/02 01:34:31;;;;;;;9.52;6.88;;;;;;;11.95;100.00;100546.53;5023963;28;24417;-90
2023/06/02 01:37:50;;;;;;;7.53;6.47;;;;;;;11.98;100.00;100540.19;4970562;28;20493;-92
2023/06/02 01:40:32;;;;;;;10.73;7.35;;;;;;;11.83;100.00;100516.13;4957318;28;20039;-90
2023/06/02 01:43:33;;;;;;;10.00;7.20;;;;;;;12.05;100.00;100547.78;4963236;28;20043;-90
2023/06/02 01:46:32;;;;;;;10.25;7.35;;;;;;;11.99;100.00;100542.75;4944246;28;20047;-90
2023/06/02 01:49:18;;;;;;;11.25;7.72;;;;;;;11.95;100.00;100551.84;4971255;28;20051;-91
2023/06/02 01:52:00;;;;;;;9.70;6.53;;;;;;;11.86;100.00;100539.88;4952746;29;20051;-89
2023/06/02 01:54:56;;;;;;;9.77;7.43;;;;;;;11.84;100.00;100551.50;4970779;29;20075;-90
2023/06/02 01:58:09;;;;;;;10.15;6.82;;;;;;;11.83;100.00;100549.78;4966420;28;20083;-90
2023/06/02 02:00:50;;;;;;;10.30;7.40;;;;;;;11.91;100.00;100553.78;5013132;28;20132;-83
2023/06/02 02:03:17;;;;;;;10.95;7.70;;;;;;;11.44;100.00;100459.75;5001569;28;20098;-84
2023/06/02 02:05:44;;;;;;;11.98;7.30;;;;;;;11.83;100.00;100537.38;4994268;28;20387;-83
2023/06/02 02:08:12;;;;;;;9.75;6.80;;;;;;;10.89;100.00;100375.84;4992387;28;20869;-84
2023/06/02 02:10:39;;;;;;;10.27;7.32;;;;;;;11.19;100.00;100433.56;4989869;28;20152;-84
2023/06/02 02:13:05;;;;;;;9.40;6.95;;;;;;;10.44;100.00;100294.19;4988149;28;20132;-84
2023/06/02 02:15:32;;;;;;;9.38;6.82;;;;;;;10.39;100.00;100287.41;4995093;28;20046;-83
2023/06/02 02:17:59;;;;;;;9.73;6.82;;;;;;;11.34;100.00;100443.44;4996925;28;20092;-86
2023/06/02 02:20:26;;;;;;;9.98;6.65;;;;;;;11.91;100.00;100540.50;4994376;28;20141;-85
2023/06/02 02:22:53;;;;;;;9.55;7.45;;;;;;;11.30;100.00;100449.84;5015489;28;20046;-85
2023/06/02 02:25:19;;;;;;;10.60;7.43;;;;;;;11.62;100.00;100490.69;5024229;28;20640;-84
2023/06/02 02:27:46;;;;;;;8.43;7.07;;;;;;;11.86;100.00;100541.66;5023234;28;20053;-83
2023/06/02 02:30:13;;;;;;;8.25;7.20;;;;;;;11.33;100.00;100460.28;5035106;28;20052;-84
2023/06/02 02:32:43;;;;;;;9.93;7.32;;;;;;;10.96;100.00;100383.50;5018848;28;20064;-83
2023/06/02 02:35:10;;;;;;;10.35;7.13;;;;;;;11.25;100.00;100442.09;5017264;28;20053;-82
2023/06/02 02:37:37;;;;;;;9.48;7.00;;;;;;;11.66;100.00;100504.63;5017546;28;20542;-83
2023/06/02 02:40:14;;;;;;;11.25;7.10;;;;;;;11.63;100.00;100494.19;5025487;28;20046;-84
2023/06/02 02:42:40;;;;;;;11.50;7.18;;;;;;;11.59;100.00;100502.28;5011843;28;20038;-85
2023/06/02 02:45:08;;;;;;;10.23;7.30;;;;;;;11.39;100.00;100462.63;5022970;28;20494;-83
2023/06/02 02:47:34;;;;;;;11.07;7.55;;;;;;;11.21;100.00;100442.31;5003092;28;20049;-84
2023/06/02 02:50:02;;;;;;;9.75;7.00;;;;;;;11.01;100.00;100414.16;5018723;28;20046;-86
2023/06/02 02:52:29;;;;;;;8.65;7.10;;;;;;;11.22;100.00;100460.78;5000655;28;20046;-83
2023/06/02 02:54:56;;;;;;;12.65;6.90;;;;;;;11.11;100.00;100438.41;4986728;28;20526;-84
2023/06/02 02:57:23;;;;;;;10.32;7.45;;;;;;;10.30;100.00;100320.44;5015311;28;20078;-83
2023/06/02 02:59:57;;;;;;;10.05;7.00;;;;;;;11.07;100.00;100450.94;5004625;28;20507;-85
2023/06/02 03:02:24;;;;;;;9.63;6.43;;;;;;;11.70;100.00;100551.28;5011789;28;20116;-83
2023/06/02 03:04:53;;;;;;;12.07;7.22;;;;;;;10.90;100.00;100435.84;5003335;28;20121;-84
2023/06/02 03:07:20;;;;;;;13.05;7.35;;;;;;;11.17;100.00;100465.47;5015409;28;20076;-82
2023/06/02 03:09:49;;;;;;;9.70;6.82;;;;;;;10.88;100.00;100424.47;5005536;28;20112;-84
2023/06/02 03:12:16;;;;;;;11.15;6.75;;;;;;;11.23;100.00;100499.63;5002615;28;20625;-84
2023/06/02 03:14:43;;;;;;;11.02;7.07;;;;;;;10.81;100.00;100417.75;5002032;28;20148;-83
2023/06/02 03:17:10;;;;;;;10.73;6.88;;;;;;;10.68;100.00;100408.66;5009800;28;20050;-83
2023/06/02 03:19:37;;;;;;;11.45;7.15;;;;;;;10.18;100.00;100336.88;5006333;28;20042;-84
2023/06/02 03:22:04;;;;;;;9.95;6.78;;;;;;;10.58;100.00;100387.97;5011554;28;20050;-85
2023/06/02 03:24:34;;;;;;;12.55;7.38;;;;;;;10.82;100.00;100435.38;5009430;28;20042;-87
2023/06/02 03:27:03;;;;;;;12.93;7.90;;;;;;;10.84;100.00;100433.50;5006069;28;20065;-86
2023/06/02 03:29:30;;;;;;;10.55;7.10;;;;;;;10.48;100.00;100374.31;5020425;28;20077;-83
2023/06/02 03:31:57;;;;;;;14.45;7.72;;;;;;;11.65;100.00;100569.25;5007186;28;20050;-82
2023/06/02 03:34:23;;;;;;;13.02;7.38;;;;;;;11.00;100.00;100459.28;5009310;28;20140;-84
2023/06/02 03:36:50;;;;;;;9.02;7.28;;;;;;;11.60;100.00;100577.41;5024057;28;20066;-85
2023/06/02 03:39:16;;;;;;;11.43;6.93;;;;;;;11.49;100.00;100558.50;5003049;28;20072;-83
2023/06/02 03:41:43;;;;;;;14.80;8.20;;;;;;;11.36;100.00;100542.31;5009975;28;20038;-84
2023/06/02 03:44:10;;;;;;;12.18;7.50;;;;;;;11.34;100.00;100535.34;5013734;28;20120;-84
2023/06/02 03:46:36;;;;;;;13.63;7.53;;;;;;;11.43;100.00;100542.88;5008178;28;20046;-83
2023/06/02 03:49:03;;;;;;;12.38;7.43;;;;;;;11.16;100.00;100500.88;5006858;28;20527;-86
2023/06/02 03:51:30;;;;;;;11.88;7.13;;;;;;;11.14;100.00;100504.53;4994422;28;20062;-85
2023/06/02 03:53:56;;;;;;;14.05;8.02;;;;;;;10.64;100.00;100407.09;5010260;28;20046;-82
2023/06/02 03:56:23;;;;;;;14.38;7.35;;;;;;;11.76;100.00;100597.00;5002845;28;20516;-81
2023/06/02 03:58:50;;;;;;;12.93;7.88;;;;;;;11.55;100.00;100564.38;5014282;28;20046;-81
2023/06/02 04:01:17;;;;;;;9.52;6.90;;;;;;;11.46;100.00;100538.31;5021618;28;20057;-82
2023/06/02 04:03:44;;;;;;;11.95;7.70;;;;;;;11.81;100.00;100591.44;5005929;28;20085;-79
2023/06/02 04:06:11;;;;;;;11.95;7.18;;;;;;;11.65;100.00;100569.25;5019966;28;20069;-81
2023/06/02 04:08:39;;;;;;;12.50;7.22;;;;;;;10.64;100.00;100415.03;5005247;28;20050;-81
2023/06/02 04:11:05;;;;;;;15.13;7.75;;;;;;;10.85;100.00;100440.53;4996632;28;20115;-80
2023/06/02 04:13:32;;;;;;;13.70;7.80;;;;;;;11.11;100.00;100486.09;5018678;28;20077;-80
2023/06/02 04:15:59;;;;;;;13.38;8.00;;;;;;;11.68;100.00;100596.44;5003346;28;20046;-80
2023/06/02 04:18:30;;;;;;;15.25;7.72;;;;;;;11.85;100.00;100611.59;5007165;28;20038;-80
2023/06/02 04:21:00;;;;;;;14.50;7.93;;;;;;;11.24;100.00;100509.31;5023286;28;20143;-80
2023/06/02 04:23:26;;;;;;;13.00;7.80;;;;;;;11.57;100.00;100559.00;5008303;28;20178;-81
2023/06/02 04:25:54;;;;;;;14.82;8.63;;;;;;;11.58;100.00;100558.91;5005174;28;20052;-81
2023/06/02 04:28:20;;;;;;;13.02;8.07;;;;;;;11.81;100.00;100570.22;5014513;28;20053;-82
2023/06/02 04:30:48;;;;;;;10.57;7.10;;;;;;;11.91;100.00;100574.16;4999549;28;20042;-81
2023/06/02 04:33:15;;;;;;;11.10;8.02;;;;;;;12.19;100.00;100630.22;5004633;28;20161;-80
2023/06/02 04:35:41;;;;;;;12.30;7.75;;;;;;;11.93;100.00;100585.56;5008824;28;20045;-80
2023/06/02 04:38:09;;;;;;;13.88;7.65;;;;;;;12.27;100.00;100635.19;5006076;28;20046;-81
2023/06/02 04:40:37;;;;;;;13.18;7.35;;;;;;;12.05;100.00;100587.59;5006059;28;20128;-81
2023/06/02 04:43:04;;;;;;;13.52;7.50;;;;;;;11.94;100.00;100581.97;5005376;28;20071;-80
2023/06/02 04:45:31;;;;;;;17.05;7.50;;;;;;;11.48;100.00;100512.56;5007818;28;20177;-81
2023/06/02 04:47:58;;;;;;;12.57;7.97;;;;;;;12.12;100.00;100617.34;5004974;28;20046;-80
2023/06/02 04:50:25;;;;;;;10.63;7.63;;;;;;;12.28;100.00;100642.19;5016394;28;20054;-81
2023/06/02 04:52:51;;;;;;;15.25;6.80;;;;;;;12.17;100.00;100613.53;5015884;28;20034;-80
2023/06/02 04:55:18;;;;;;;11.50;7.47;;;;;;;12.16;98.34;100617.09;5000189;28;20747;-82
2023/06/02 04:57:45;;;;;;;12.40;7.32;;;;;;;12.14;96.22;100589.78;4997355;28;20695;-80
2023/06/02 05:00:12;;;;;;;10.93;7.80;;;;;;;12.32;96.19;100616.34;5017438;28;20050;-82
2023/06/02 05:02:39;;;;;;;10.75;6.45;;;;;;;11.70;95.44;100508.84;5017834;28;20070;-80
2023/06/02 05:05:06;;;;;;;12.23;7.65;;;;;;;12.17;93.16;100586.97;5020249;28;20109;-81
2023/06/02 05:07:33;;;;;;;11.25;7.25;;;;;;;12.23;92.13;100578.72;4990882;28;20046;-81
2023/06/02 05:10:00;;;;;;;14.80;7.93;;;;;;;12.16;90.93;100565.81;4995935;28;20046;-80
2023/06/02 05:12:27;;;;;;;12.23;7.25;;;;;;;11.78;91.21;100499.63;5002133;28;20076;-81
2023/06/02 05:14:54;;;;;;;10.07;6.88;;;;;;;12.57;89.58;100636.28;5001302;28;20059;-82
2023/06/02 05:17:23;;;;;;;13.23;7.22;;;;;;;11.97;90.38;100523.41;5015769;28;20564;-81
2023/06/02 05:19:50;;;;;;;11.02;6.75;;;;;;;12.10;89.70;100545.75;5010963;28;20041;-81
2023/06/02 05:22:17;;;;;;;11.57;6.82;;;;;;;12.64;89.41;100631.50;5012863;28;20459;-80
2023/06/02 05:24:43;;;;;;;10.60;7.10;;;;;;;12.64;87.83;100634.16;5020876;28;20536;-80
2023/06/02 05:27:10;;;;;;;10.07;7.05;;;;;;;11.98;88.02;100505.69;4999956;28;20045;-81
2023/06/02 05:29:36;;;;;;;12.00;7.15;;;;;;;12.62;87.63;100625.38;5015191;28;20145;-80
2023/06/02 05:32:04;;;;;;;10.70;7.07;;;;;;;12.56;88.08;100621.28;5013896;28;20048;-79
2023/06/02 05:34:32;;;;;;;12.13;7.18;;;;;;;12.48;87.77;100602.19;5000825;28;20042;-80
2023/06/02 05:37:00;;;;;;;10.48;6.85;;;;;;;12.14;87.24;100536.69;5007415;28;20081;-81
2023/06/02 05:39:27;;;;;;;13.73;7.68;;;;;;;12.27;85.75;100548.41;5018206;28;20062;-80
2023/06/02 05:41:53;;;;;;;11.35;6.43;;;;;;;12.21;85.87;100543.41;5000629;28;20048;-80
2023/06/02 05:44:20;;;;;;;17.08;7.40;;;;;;;12.56;85.44;100607.13;5001199;28;20526;-79
2023/06/02 05:46:46;;;;;;;12.60;6.75;;;;;;;12.69;88.44;100623.28;5003581;28;20050;-81
2023/06/02 05:49:13;;;;;;;18.17;7.00;;;;;;;12.91;84.91;100614.09;5004700;28;20057;-80
2023/06/02 05:51:40;;;;;;;11.00;6.28;;;;;;;12.59;83.03;100559.16;5013026;28;20043;-81
2023/06/02 05:54:07;;;;;;;10.85;6.95;;;;;;;13.18;81.99;100617.13;5015618;28;20057;-81
2023/06/02 05:56:35;;;;;;;10.50;6.47;;;;;;;13.19;79.96;100610.00;4999138;28;20049;-81
2023/06/02 05:59:01;;;;;;;10.35;6.82;;;;;;;13.08;78.66;100583.94;5007535;28;20679;-80
2023/06/02 06:01:28;;;;;;;12.68;6.38;;;;;;;13.37;79.33;100624.09;5019107;28;20107;-82
2023/06/02 06:03:55;;;;;;;10.75;6.75;;;;;;;13.46;77.22;100627.09;5008773;28;20072;-80
2023/06/02 06:06:22;;;;;;;12.93;6.75;;;;;;;12.99;76.99;100539.25;5002866;28;20070;-80
2023/06/02 06:08:48;;;;;;;11.18;7.15;;;;;;;13.57;75.85;100613.19;5000164;28;20046;-80
2023/06/02 06:11:17;;;;;;;8.43;6.30;;;;;;;13.80;75.02;100634.06;5024991;28;20049;-80
2023/06/02 06:13:43;;;;;;;13.57;6.43;;;;;;;13.68;75.10;100600.19;5006433;28;20410;-82
2023/06/02 06:16:10;;;;;;;8.93;6.28;;;;;;;14.06;73.96;100621.94;4999793;28;20132;-80
2023/06/02 06:18:38;;;;;;;10.07;6.40;;;;;;;14.45;70.89;100640.09;5008089;28;20500;-80
2023/06/02 06:21:05;;;;;;;9.70;5.50;;;;;;;14.46;69.44;100593.00;4999682;28;20062;-81
2023/06/02 06:23:31;;;;;;;10.68;6.00;;;;;;;14.54;66.23;100545.41;4993822;28;20043;-81
2023/06/02 06:25:58;;;;;;;10.93;5.88;;;;;;;15.31;68.92;100625.91;5001673;28;20053;-81
2023/06/02 06:28:24;;;;;;;9.00;5.35;;;;;;;15.40;62.84;100612.00;5024421;28;20167;-82
2023/06/02 06:30:51;;;;;;;7.40;5.45;;;;;;;15.57;64.21;100624.31;5006990;28;20042;-82
2023/06/02 06:33:18;;;;;;;11.25;5.72;;;;;;;15.11;61.36;100540.94;5012913;28;20052;-80
2023/06/02 06:35:44;;;;;;;8.15;5.88;;;;;;;15.64;60.90;100582.88;5007895;28;20132;-81
2023/06/02 06:38:12;;;;;;;11.95;6.03;;;;;;;15.74;59.82;100581.31;5012661;28;20115;-81
2023/06/02 06:40:38;;;;;;;6.30;5.25;;;;;;;16.14;61.41;100634.81;5017337;28;20492;-81
2023/06/02 06:43:05;;;;;;;7.93;5.28;;;;;;;16.19;60.34;100614.00;5009098;28;20050;-81
2023/06/02 06:45:49;;;;;;;10.27;5.43;;;;;;;16.06;58.13;100624.59;5028118;28;20105;-81
2023/06/02 06:48:15;;;;;;;9.20;5.65;;;;;;;15.72;59.30;100609.97;5019406;28;20056;-81
2023/06/02 06:50:43;;;;;;;10.18;5.60;;;;;;;15.80;61.04;100660.19;5021354;28;20111;-81
2023/06/02 06:53:11;;;;;;;9.20;5.68;;;;;;;15.12;59.98;100547.13;5011215;28;20043;-82
2023/06/02 06:55:38;;;;;;;7.88;5.38;;;;;;;15.11;60.42;100556.09;5013164;28;20050;-81
2023/06/02 06:58:05;;;;;;;8.48;5.57;;;;;;;15.36;59.39;100564.25;5006264;28;20736;-81
2023/06/02 07:00:31;;;;;;;11.15;5.93;;;;;;;15.77;57.96;100645.22;5006603;28;20045;-81
2023/06/02 07:02:58;;;;;;;10.07;5.18;;;;;;;15.94;62.22;100668.16;5008533;28;20136;-81
2023/06/02 07:05:25;;;;;;;8.90;5.43;;;;;;;16.35;61.94;100669.94;5006157;28;20054;-80
2023/06/02 07:07:52;;;;;;;12.73;5.53;;;;;;;16.17;57.55;100566.97;5021311;28;20045;-81
2023/06/02 07:10:19;;;;;;;10.93;6.22;;;;;;;16.81;57.08;100643.66;5011528;28;20483;-81
2023/06/02 07:12:46;;;;;;;7.97;5.10;;;;;;;16.54;57.29;100616.06;5001461;28;20038;-81
2023/06/02 07:15:13;;;;;;;9.55;5.47;;;;;;;16.45;56.49;100620.25;5023518;28;20049;-80
2023/06/02 07:17:42;;;;;;;10.30;5.05;;;;;;;16.07;57.62;100618.31;5020952;28;20056;-80
2023/06/02 07:20:10;;;;;;;6.93;5.15;;;;;;;16.75;58.07;100670.81;5006471;28;20496;-80
2023/06/02 07:22:37;;;;;;;6.57;5.05;;;;;;;16.89;55.01;100629.75;5002090;28;20053;-80
2023/06/02 07:25:04;;;;;;;10.80;5.38;;;;;;;17.06;54.99;100643.66;5006146;28;20077;-80
2023/06/02 07:27:33;;;;;;;9.57;5.22;;;;;;;16.80;54.98;100591.13;5004013;28;20506;-81
2023/06/02 07:30:00;;;;;;;8.50;5.03;;;;;;;17.36;55.32;100662.03;4993446;28;20045;-80
2023/06/02 07:32:27;;;;;;;8.35;5.20;;;;;;;16.41;54.22;100510.00;5016974;28;20539;-82
2023/06/02 07:34:53;;;;;;;7.88;4.85;;;;;;;16.89;54.83;100651.13;4998978;28;20050;-82
2023/06/02 07:37:20;;;;;;;7.93;5.18;;;;;;;16.84;54.81;100679.03;4998216;28;20042;-81
2023/06/02 07:39:47;;;;;;;7.13;5.03;;;;;;;16.30;55.54;100586.53;5015294;28;20062;-82
2023/06/02 07:42:14;;;;;;;7.47;4.85;;;;;;;16.79;55.58;100661.63;5006941;28;20454;-82
2023/06/02 07:44:41;;;;;;;10.38;5.05;;;;;;;16.67;57.05;100625.03;5001151;28;20053;-81
2023/06/02 07:47:08;;;;;;;8.60;5.53;;;;;;;16.73;54.10;100581.81;5004590;28;20086;-81
2023/06/02 07:49:35;;;;;;;8.93;5.03;;;;;;;17.13;53.47;100578.06;5003273;28;20134;-81
2023/06/02 07:52:03;;;;;;;9.98;5.28;;;;;;;17.59;51.33;100622.06;5001245;28;20050;-81
2023/06/02 07:54:29;;;;;;;7.25;4.50;;;;;;;18.16;51.39;100657.16;4994905;28;20046;-81
2023/06/02 07:56:56;;;;;;;10.02;4.82;;;;;;;18.28;51.02;100625.88;4998195;28;20046;-81
2023/06/02 07:59:23;;;;;;;9.75;5.05;;;;;;;17.90;49.69;100545.72;4995310;28;20054;-83
2023/06/02 08:01:50;;;;;;;7.00;5.25;;;;;;;17.63;49.41;100594.94;5018758;28;20415;-82
2023/06/02 08:04:18;;;;;;;7.88;4.90;;;;;;;17.23;52.27;100625.56;5004882;28;20172;-81
2023/06/02 08:06:46;;;;;;;8.25;5.07;;;;;;;16.70;52.51;100580.19;5001286;28;20046;-81
2023/06/02 08:09:14;;;;;;;4.82;4.32;;;;;;;16.32;53.96;100587.28;5000283;28;20061;-81
2023/06/02 08:11:40;;;;;;;10.57;4.72;;;;;;;16.47;55.18;100612.97;4997756;28;20068;-82
2023/06/02 08:14:08;;;;;;;10.93;5.50;;;;;;;16.64;54.70;100585.13;5015608;28;20428;-83
2023/06/02 08:16:34;;;;;;;12.45;5.32;;;;;;;16.42;52.90;100503.69;5006377;28;20049;-81
2023/06/02 08:19:20;;;;;;;9.88;5.47;;;;;;;17.49;51.52;100651.31;5000555;28;20050;-82
2023/06/02 08:21:47;;;;;;;11.43;4.90;;;;;;;17.35;53.62;100636.25;5020821;28;20563;-82
2023/06/02 08:24:14;;;;;;;8.15;4.68;;;;;;;17.56;52.26;100641.91;5008755;28;20042;-81
2023/06/02 08:26:41;;;;;;;10.57;4.93;;;;;;;17.57;52.76;100659.66;5022843;28;20129;-80
2023/06/02 08:29:11;;;;;;;8.98;4.88;;;;;;;17.30;53.40;100646.44;5019005;28;20056;-80
2023/06/02 08:31:38;;;;;;;9.98;4.38;;;;;;;17.25;53.01;100637.00;5003994;28;20049;-82
2023/06/02 08:34:08;;;;;;;7.63;4.90;;;;;;;17.08;53.75;100620.31;5020233;28;20499;-80
2023/06/02 08:36:35;;;;;;;7.30;4.55;;;;;;;16.40;54.92;100545.72;5013582;28;20038;-79
2023/06/02 08:39:06;;;;;;;7.60;4.82;;;;;;;16.87;55.22;100621.81;4999663;28;20108;-78
2023/06/02 08:41:36;;;;;;;6.60;4.88;;;;;;;17.08;53.68;100619.47;4998807;28;20133;-78
2023/06/02 08:44:04;;;;;;;9.45;5.50;;;;;;;17.16;52.26;100631.34;4999185;28;20469;-79
2023/06/02 08:46:31;;;;;;;10.38;4.93;;;;;;;17.15;52.50;100634.16;5010416;28;20058;-81
2023/06/02 08:49:00;;;;;;;6.43;4.68;;;;;;;17.02;52.67;100593.13;5015386;28;20046;-80
2023/06/02 08:51:28;;;;;;;7.90;4.82;;;;;;;17.23;52.59;100599.66;5000754;28;20104;-81
2023/06/02 08:53:56;;;;;;;9.02;4.45;;;;;;;17.37;51.38;100630.78;5014307;28;20125;-81
2023/06/02 08:56:23;;;;;;;6.95;4.40;;;;;;;17.38;52.23;100624.47;5001017;28;20163;-79
2023/06/02 08:58:49;;;;;;;8.77;4.60;;;;;;;17.45;51.92;100617.72;4996550;28;20062;-77
2023/06/02 09:01:16;;;;;;;7.18;4.60;;;;;;;16.91;51.04;100516.31;4999021;28;20496;-78
2023/06/02 09:03:46;;;;;;;8.18;5.18;;;;;;;17.31;51.16;100626.75;4997686;28;20046;-77
2023/06/02 09:06:21;;;;;;;7.93;4.97;;;;;;;17.39;52.26;100628.84;5010152;28;20104;-77
2023/06/02 09:09:00;;;;;;;10.75;4.95;;;;;;;17.44;52.00;100626.72;5000487;28;20516;-79
2023/06/02 09:11:28;;;;;;;8.27;4.40;;;;;;;17.23;52.68;100596.97;4999206;28;20519;-76
2023/06/02 09:13:55;;;;;;;7.72;4.82;;;;;;;17.27;52.41;100613.69;5001226;28;20064;-78
2023/06/02 09:16:22;;;;;;;10.27;4.97;;;;;;;17.41;52.06;100643.00;4996511;28;20046;-79
2023/06/02 09:18:58;;;;;;;9.93;4.95;;;;;;;17.28;53.20;100610.91;4996439;28;20293;-76
2023/06/02 09:21:29;;;;;;;7.68;4.65;;;;;;;17.12;52.31;100568.31;4996664;28;20042;-79
2023/06/02 09:23:57;;;;;;;6.68;4.53;;;;;;;17.37;51.43;100588.81;4989232;28;20138;-79
2023/06/02 09:26:47;;;;;;;6.82;4.68;;;;;;;17.30;50.57;100602.75;4995408;28;20050;-80
2023/06/02 09:29:14;;;;;;;8.82;5.35;;;;;;;16.95;50.80;100570.47;4996102;28;20157;-77
2023/06/02 09:31:44;;;;;;;8.30;4.60;;;;;;;17.12;51.90;100624.50;4998539;28;20046;-79
2023/06/02 09:34:12;;;;;;;7.93;4.60;;;;;;;17.19;51.30;100631.13;4998755;28;20057;-79
2023/06/02 09:36:39;;;;;;;9.70;5.25;;;;;;;16.61;56.27;100591.50;4998115;28;20106;-80
2023/06/02 09:39:08;;;;;;;9.57;5.00;;;;;;;16.13;55.35;100593.88;4982421;28;20057;-78
2023/06/02 09:41:35;;;;;;;7.93;4.65;;;;;;;15.68;56.28;100564.88;5002577;28;20045;-81
2023/06/02 09:44:03;;;;;;;11.27;5.43;;;;;;;15.25;61.05;100567.59;5021114;28;20453;-78
2023/06/02 09:46:38;;;;;;;12.55;5.57;;;;;;;15.02;63.52;100569.03;5023224;28;20133;-79
2023/06/02 09:49:06;;;;;;;8.88;5.40;;;;;;;15.20;62.55;100598.19;5019462;28;20046;-79
2023/06/02 09:51:33;;;;;;;11.10;5.20;;;;;;;15.26;61.23;100596.00;5019464;28;20096;-82
2023/06/02 09:54:00;;;;;;;10.32;5.25;;;;;;;15.41;59.88;100615.53;5020819;28;20056;-80
2023/06/02 09:56:29;;;;;;;8.25;5.47;;;;;;;15.42;66.98;100638.59;5020015;28;20389;-79
2023/06/02 09:58:55;;;;;;;8.05;5.80;;;;;;;15.15;66.05;100590.47;5005359;28;20054;-80
2023/06/02 10:01:22;;;;;;;7.25;4.70;;;;;;;15.07;61.03;100590.97;4999760;28;20076;-78
2023/06/02 10:03:49;;;;;;;12.50;5.60;;;;;;;15.32;59.26;100621.41;5024665;28;20046;-80
2023/06/02 10:06:31;;;;;;;7.38;5.13;;;;;;;15.39;63.12;100642.31;5011326;28;20511;-79
2023/06/02 10:09:35;;;;;;;7.30;4.43;;;;;;;15.58;63.86;100643.84;5010126;28;20049;-80
2023/06/02 10:12:24;;;;;;;6.50;4.57;;;;;;;15.57;64.29;100632.31;5014007;28;20113;-79
2023/06/02 10:15:13;;;;;;;12.18;4.78;;;;;;;15.82;65.36;100638.72;5022336;28;20050;-81
2023/06/02 10:17:52;;;;;;;9.27;5.05;;;;;;;15.95;60.29;100612.94;5007251;28;20046;-79
2023/06/02 10:20:54;;;;;;;7.80;5.03;;;;;;;16.05;59.39;100641.63;5002235;28;20053;-79
2023/06/02 10:23:32;;;;;;;11.02;5.47;;;;;;;15.65;60.10;100591.75;4984910;28;20073;-81
2023/06/02 10:26:11;;;;;;;7.72;4.95;;;;;;;15.74;59.71;100632.06;5008427;28;20042;-79
2023/06/02 10:28:38;;;;;;;7.07;4.30;;;;;;;15.35;59.69;100568.72;5011978;28;20062;-78
2023/06/02 10:31:10;;;;;;;10.40;4.60;;;;;;;15.79;63.50;100632.63;5003898;28;20054;-79
2023/06/02 10:33:47;;;;;;;11.88;4.65;;;;;;;15.72;58.50;100593.09;5007056;28;20157;-78
2023/06/02 10:36:17;;;;;;;10.90;4.68;;;;;;;16.07;57.50;100615.63;5011899;28;20124;-79
2023/06/02 10:38:45;;;;;;;8.30;4.63;;;;;;;15.81;60.53;100563.09;5028104;28;20570;-79
2023/06/02 10:41:21;;;;;;;7.53;4.28;;;;;;;15.73;59.57;100536.06;5023021;28;20053;-79
2023/06/02 10:44:20;;;;;;;8.48;4.18;;;;;;;16.55;62.59;100625.81;5004728;28;20047;-79
2023/06/02 10:46:47;;;;;;;9.77;4.43;;;;;;;15.93;55.24;100513.34;5005510;28;20042;-79
2023/06/02 10:49:57;;;;;;;8.02;4.85;;;;;;;16.59;57.58;100624.66;5018655;28;20037;-80
2023/06/02 10:52:32;;;;;;;8.95;4.90;;;;;;;16.64;54.19;100631.44;5006142;28;20042;-78
2023/06/02 10:55:07;;;;;;;6.57;4.10;;;;;;;16.68;61.75;100634.78;4994407;28;20046;-79
2023/06/02 10:58:05;;;;;;;9.38;3.92;;;;;;;16.66;57.64;100623.31;5008215;28;20580;-79
2023/06/02 11:00:35;;;;;;;13.48;4.63;;;;;;;16.75;53.89;100620.84;4994461;28;20033;-79
2023/06/02 11:03:03;;;;;;;7.95;4.20;;;;;;;16.34;55.44;100559.50;5020356;28;20042;-80
2023/06/02 11:05:31;;;;;;;8.82;3.97;;;;;;;16.39;55.00;100567.19;5005355;28;20112;-80
2023/06/02 11:08:18;;;;;;;8.23;3.80;;;;;;;16.74;54.37;100618.28;4998852;28;20541;-79
2023/06/02 11:10:48;;;;;;;9.13;4.30;;;;;;;16.72;54.15;100620.19;5001346;28;20080;-79
2023/06/02 11:13:16;;;;;;;8.52;3.35;;;;;;;16.78;52.60;100614.44;5002858;28;20047;-80
2023/06/02 11:15:58;;;;;;;9.93;4.05;;;;;;;16.92;50.45;100609.00;5005655;28;20070;-79
2023/06/02 11:18:26;;;;;;;6.93;4.10;;;;;;;16.99;51.90;100628.16;5010724;28;20037;-78
2023/06/02 11:20:54;;;;;;;7.05;3.47;;;;;;;17.07;51.16;100626.63;5006607;28;20041;-79
2023/06/02 11:23:21;;;;;;;7.85;3.88;;;;;;;17.18;49.82;100620.53;5000290;28;20057;-79
2023/06/02 11:25:50;;;;;;;6.38;3.88;;;;;;;17.09;55.01;100615.84;5008268;28;20411;-79
2023/06/02 11:28:20;;;;;;;10.57;4.45;;;;;;;17.09;57.33;100608.66;5006686;28;20048;-82
2023/06/02 11:30:47;;;;;;;9.35;4.15;;;;;;;17.16;52.76;100609.91;5005739;28;20045;-79
2023/06/02 11:33:14;;;;;;;9.40;3.97;;;;;;;17.26;52.35;100617.31;5008200;28;20523;-81
2023/06/02 11:35:46;;;;;;;6.28;3.70;;;;;;;17.36;53.10;100621.03;5002111;28;20575;-81
2023/06/02 11:38:16;;;;;;;7.20;3.60;;;;;;;17.04;52.70;100568.00;5018245;28;20046;-80
2023/06/02 11:40:43;;;;;;;8.43;3.75;;;;;;;16.73;51.92;100496.22;5006036;28;20053;-79
2023/06/02 11:43:19;;;;;;;8.15;3.90;;;;;;;17.03;52.85;100576.97;5012594;28;20050;-80
2023/06/02 11:45:47;;;;;;;10.50;3.67;;;;;;;17.07;52.55;100596.34;5013745;28;20125;-80
2023/06/02 11:48:14;;;;;;;13.70;4.22;;;;;;;17.36;52.36;100583.56;5014469;28;20053;-80
2023/06/02 11:50:41;;;;;;;7.43;3.90;;;;;;;17.32;54.47;100584.75;5011160;28;20113;-78
2023/06/02 11:53:13;;;;;;;8.70;4.30;;;;;;;17.10;52.24;100556.88;5001425;28;20054;-79
2023/06/02 11:55:40;;;;;;;8.40;4.00;;;;;;;17.43;54.70;100591.06;4994856;28;20039;-80
2023/06/02 11:58:18;;;;;;;8.75;4.07;;;;;;;17.70;52.38;100585.53;5018032;28;20424;-80
2023/06/02 12:00:45;;;;;;;6.55;3.47;;;;;;;17.48;51.75;100532.66;4999017;28;20480;-81
2023/06/02 12:03:12;;;;;;;9.07;3.78;;;;;;;17.46;50.99;100539.13;5000598;28;20053;-82
2023/06/02 12:05:43;;;;;;;11.68;4.35;;;;;;;17.72;53.60;100572.88;5005727;28;20089;-80
2023/06/02 12:08:22;;;;;;;10.85;4.07;;;;;;;17.34;50.61;100486.44;5006907;28;20046;-81
2023/06/02 12:10:49;;;;;;;8.63;3.80;;;;;;;17.73;53.91;100537.09;5002984;28;20799;-79
2023/06/02 12:13:24;;;;;;;6.80;3.28;;;;;;;17.83;48.98;100548.84;5019344;28;20100;-80
2023/06/02 12:15:52;;;;;;;7.13;3.88;;;;;;;18.13;50.14;100587.69;5006512;28;20042;-80
2023/06/02 12:18:30;;;;;;;8.38;3.33;;;;;;;18.42;47.21;100582.78;5010528;28;20053;-78
2023/06/02 12:20:58;;;;;;;9.13;3.33;;;;;;;18.75;45.37;100584.72;4998484;28;20066;-82
2023/06/02 12:23:44;;;;;;;6.82;3.78;;;;;;;18.97;45.23;100589.28;5012938;28;20464;-79
2023/06/02 12:26:12;;;;;;;9.60;3.75;;;;;;;19.05;44.39;100576.09;5008112;28;20056;-81
2023/06/02 12:28:40;;;;;;;8.45;3.53;;;;;;;19.16;45.18;100568.06;5009564;28;20044;-79
2023/06/02 12:31:07;;;;;;;7.28;3.70;;;;;;;18.82;43.22;100482.19;5000210;28;20048;-80